createdAt,value
2023-04-01T06:49:36.674Z,0.00
2023-04-01T07:09:22.221Z,15224.00
2023-04-01T07:10:22.242Z,18123.00
2023-04-01T07:11:22.287Z,18270.00
2023-04-01T07:12:22.330Z,18020.00
2023-04-01T07:13:22.409Z,16851.00
2023-04-01T07:14:22.425Z,16912.00
2023-04-01T07:15:22.453Z,18844.00
2023-04-01T07:16:22.529Z,21220.00
2023-04-01T07:17:22.562Z,18670.00
2023-04-01T07:18:22.618Z,14985.00
2023-04-01T07:19:22.630Z,14207.00
2023-04-01T07:20:22.684Z,15858.00
2023-04-01T07:21:22.746Z,15155.00
2023-04-01T07:22:22.815Z,14109.00
2023-04-01T07:23:22.865Z,14642.00
2023-04-01T07:24:22.871Z,15145.00
2023-04-01T07:25:22.902Z,17866.00
2023-04-01T07:26:25.682Z,18705.00
2023-04-01T07:27:22.989Z,18180.00
2023-04-01T07:28:23.069Z,16687.00
2023-04-01T07:29:23.082Z,14541.00
2023-04-01T07:30:23.148Z,16451.00
2023-04-01T07:31:23.207Z,18175.00
2023-04-01T07:32:23.424Z,15918.00
2023-04-01T07:33:23.304Z,20469.00
2023-04-01T07:34:23.315Z,20575.00
2023-04-01T07:35:23.990Z,17371.00
2023-04-01T07:36:26.004Z,28959.00
2023-04-01T07:37:25.783Z,28582.00
2023-04-01T07:38:23.566Z,21169.00
2023-04-01T07:39:23.555Z,32778.00
2023-04-01T07:40:23.621Z,31034.00
2023-04-01T07:41:25.895Z,21182.00
2023-04-01T07:42:23.681Z,24654.00
2023-04-01T07:43:23.740Z,24462.00
2023-04-01T07:44:25.966Z,29741.00
2023-04-01T07:45:23.885Z,29433.00
2023-04-01T07:46:23.885Z,20419.00
2023-04-01T07:47:24.552Z,22457.00
2023-04-01T07:48:23.968Z,31458.00
2023-04-01T07:49:24.023Z,25178.00
2023-04-01T07:50:24.090Z,21265.00
2023-04-01T07:51:24.185Z,27285.00
2023-04-01T07:52:24.177Z,28641.00
2023-04-01T07:53:24.212Z,36027.00
2023-04-01T07:54:24.244Z,34126.00
2023-04-01T07:55:24.346Z,26264.00
2023-04-01T07:56:24.340Z,20753.00
2023-04-01T07:57:24.472Z,22160.00
2023-04-01T07:58:24.466Z,23511.00
2023-04-01T07:59:24.487Z,23076.00
2023-04-01T08:00:24.583Z,19870.00
2023-04-01T08:01:24.586Z,18063.00
2023-04-01T08:02:24.690Z,18679.00
2023-04-01T08:03:24.806Z,19233.00
2023-04-01T08:04:26.015Z,20417.00
2023-04-01T08:05:26.026Z,21651.00
2023-04-01T08:06:26.037Z,22486.00
2023-04-01T08:07:24.892Z,22149.00
2023-04-01T08:08:24.934Z,20615.00
2023-04-01T08:09:24.948Z,20428.00
2023-04-01T08:10:25.031Z,20839.00
2023-04-01T08:11:26.147Z,20893.00
2023-04-01T08:12:25.124Z,20712.00
2023-04-01T08:13:25.140Z,20331.00
2023-04-01T08:14:26.209Z,17786.00
2023-04-01T08:15:26.230Z,20153.00
2023-04-01T08:16:26.313Z,20863.00
2023-04-01T08:17:26.273Z,21445.00
2023-04-01T08:18:26.284Z,19951.00
2023-04-01T08:19:26.292Z,22101.00
2023-04-01T08:20:25.529Z,20544.00
2023-04-01T08:21:25.521Z,17883.00
2023-04-01T08:22:25.595Z,20801.00
2023-04-01T08:23:25.620Z,24136.00
2023-04-01T08:24:27.826Z,24520.00
2023-04-01T08:25:25.730Z,24324.00
2023-04-01T08:26:26.039Z,22474.00
2023-04-01T08:27:26.000Z,19688.00
2023-04-01T08:28:26.019Z,19807.00
2023-04-01T08:29:26.038Z,21699.00
2023-04-01T08:30:26.080Z,20759.00
2023-04-01T08:31:26.153Z,17348.00
2023-04-01T08:32:26.213Z,15665.00
2023-04-01T08:33:26.183Z,18730.00
2023-04-01T08:34:26.160Z,19670.00
2023-04-01T08:35:26.197Z,19859.00
2023-04-01T08:36:26.274Z,17955.00
2023-04-01T08:37:26.319Z,16921.00
2023-04-01T08:38:26.362Z,17753.00
2023-04-01T08:39:26.358Z,18444.00
2023-04-01T08:40:26.404Z,16203.00
2023-04-01T08:41:26.473Z,11606.00
2023-04-01T08:42:26.497Z,10702.00
2023-04-01T08:43:26.578Z,14319.00
2023-04-01T08:44:26.590Z,16214.00
2023-04-01T08:45:26.687Z,16864.00
2023-04-01T08:46:26.727Z,15211.00
2023-04-01T08:47:26.785Z,15478.00
2023-04-01T08:48:26.772Z,13753.00
2023-04-01T08:49:26.864Z,12597.00
2023-04-01T08:50:26.876Z,12185.00
2023-04-01T08:51:26.924Z,13146.00
2023-04-01T08:52:26.972Z,15786.00
2023-04-01T08:53:27.020Z,17070.00
2023-04-01T08:54:27.086Z,15669.00
2023-04-01T08:55:27.144Z,16424.00
2023-04-01T08:56:27.149Z,18872.00
2023-04-01T08:57:27.240Z,21026.00
2023-04-01T08:58:27.246Z,22759.00
2023-04-01T08:59:27.300Z,21462.00
2023-04-01T09:00:27.366Z,19787.00
2023-04-01T09:01:27.394Z,20325.00
2023-04-01T09:02:30.516Z,20444.00
2023-04-01T09:03:30.569Z,22101.00
2023-04-01T09:04:29.855Z,19933.00
2023-04-01T09:05:29.835Z,15309.00
2023-04-01T09:06:29.884Z,17640.00
2023-04-01T09:07:30.037Z,19901.00
2023-04-01T09:08:30.024Z,17714.00
2023-04-01T09:09:29.949Z,17538.00
2023-04-01T09:10:27.813Z,15364.00
2023-04-01T09:11:27.937Z,15187.00
2023-04-01T09:12:27.979Z,17042.00
2023-04-01T09:13:27.954Z,15857.00
2023-04-01T09:14:30.070Z,14522.00
2023-04-01T09:15:30.226Z,13256.00
2023-04-01T09:16:30.280Z,12430.00
2023-04-01T09:17:31.048Z,14219.00
2023-04-01T09:18:30.189Z,15105.00
2023-04-01T09:19:31.033Z,13956.00
2023-04-01T09:20:28.317Z,12168.00
2023-04-01T09:21:28.369Z,11337.00
2023-04-01T09:22:28.391Z,15508.00
2023-04-01T09:23:28.466Z,14645.00
2023-04-01T09:24:28.473Z,13587.00
2023-04-01T09:25:28.531Z,15208.00
2023-04-01T09:26:28.568Z,11652.00
2023-04-01T09:27:29.516Z,12200.00
2023-04-01T09:28:30.409Z,14489.00
2023-04-01T09:29:28.823Z,14033.00
2023-04-01T09:30:29.535Z,11579.00
2023-04-01T09:31:28.846Z,12832.00
2023-04-01T09:32:30.487Z,15239.00
2023-04-01T09:33:30.472Z,16182.00
2023-04-01T09:34:30.486Z,14878.00
2023-04-01T09:35:29.019Z,14255.00
2023-04-01T09:36:29.067Z,14230.00
2023-04-01T09:37:30.067Z,12867.00
2023-04-01T09:38:31.800Z,14199.00
2023-04-01T09:39:29.213Z,14958.00
2023-04-01T09:40:29.238Z,11888.00
2023-04-01T09:41:29.304Z,11715.00
2023-04-01T09:42:29.306Z,13968.00
2023-04-01T09:43:29.369Z,13316.00
2023-04-01T09:44:29.411Z,14184.00
2023-04-01T09:45:29.452Z,13671.00
2023-04-01T09:46:30.103Z,13141.00
2023-04-01T09:47:29.596Z,11956.00
2023-04-01T09:48:29.587Z,12928.00
2023-04-01T09:49:35.313Z,13065.00
2023-04-01T09:50:30.278Z,11079.00
2023-04-01T09:51:29.734Z,11548.00
2023-04-01T09:52:29.794Z,14159.00
2023-04-01T09:53:30.150Z,13892.00
2023-04-01T09:54:30.093Z,13987.00
2023-04-01T09:55:30.120Z,14261.00
2023-04-01T09:56:30.367Z,14622.00
2023-04-01T09:57:30.644Z,12969.00
2023-04-01T09:58:30.204Z,13065.00
2023-04-01T09:59:30.207Z,13807.00
2023-04-01T10:00:30.219Z,13326.00
2023-04-01T10:01:31.084Z,13187.00
2023-04-01T10:02:30.310Z,12600.00
2023-04-01T10:03:30.288Z,11346.00
2023-04-01T10:04:31.090Z,9491.00
2023-04-01T10:05:31.681Z,9792.00
2023-04-01T10:06:31.504Z,9500.00
2023-04-01T10:07:30.486Z,11001.00
2023-04-01T10:08:30.513Z,8861.00
2023-04-01T10:09:31.540Z,10016.00
2023-04-01T10:10:31.561Z,8277.00
2023-04-01T10:11:31.567Z,10096.00
2023-04-01T10:12:31.635Z,10663.00
2023-04-01T10:13:31.614Z,8174.00
2023-04-01T10:14:31.658Z,9107.00
2023-04-01T10:15:31.776Z,9455.00
2023-04-01T10:16:31.696Z,8698.00
2023-04-01T10:17:30.962Z,9657.00
2023-04-01T10:18:31.737Z,10101.00
2023-04-01T10:19:31.799Z,10498.00
2023-04-01T10:20:31.122Z,12482.00
2023-04-01T10:21:31.866Z,13969.00
2023-04-01T10:22:31.899Z,14340.00
2023-04-01T10:23:31.894Z,11748.00
2023-04-01T10:24:31.260Z,12371.00
2023-04-01T10:25:31.571Z,13195.00
2023-04-01T10:26:31.365Z,12080.00
2023-04-01T10:27:31.382Z,11153.00
2023-04-01T10:28:31.478Z,10463.00
2023-04-01T10:29:31.479Z,12223.00
2023-04-01T10:30:38.070Z,13312.00
2023-04-01T10:31:31.607Z,14264.00
2023-04-01T10:32:31.655Z,13533.00
2023-04-01T10:33:34.709Z,13592.00
2023-04-01T10:34:31.718Z,11839.00
2023-04-01T10:35:35.171Z,12938.00
2023-04-01T10:36:32.544Z,12358.00
2023-04-01T10:37:31.961Z,12645.00
2023-04-01T10:38:31.911Z,13154.00
2023-04-01T10:39:31.948Z,15014.00
2023-04-01T10:40:34.894Z,15985.00
2023-04-01T10:41:34.910Z,16199.00
2023-04-01T10:42:34.913Z,15971.00
2023-04-01T10:43:32.134Z,16969.00
2023-04-01T10:44:32.202Z,17837.00
2023-04-01T10:45:33.401Z,18662.00
2023-04-01T10:46:35.140Z,19172.00
2023-04-01T10:47:32.331Z,19763.00
2023-04-01T10:48:33.033Z,20976.00
2023-04-01T10:49:32.414Z,22042.00
2023-04-01T10:50:32.459Z,23283.00
2023-04-01T10:51:32.544Z,22703.00
2023-04-01T10:52:32.538Z,21702.00
2023-04-01T10:53:32.606Z,22761.00
2023-04-01T10:54:35.246Z,27159.00
2023-04-01T10:55:33.005Z,24617.00
2023-04-01T10:56:32.754Z,21515.00
2023-04-01T10:57:32.894Z,26525.00
2023-04-01T10:58:35.318Z,29121.00
2023-04-01T10:59:35.540Z,25379.00
2023-04-01T11:00:32.956Z,22958.00
2023-04-01T11:01:33.036Z,18708.00
2023-04-01T11:02:33.073Z,17826.00
2023-04-01T11:03:35.561Z,21620.00
2023-04-01T11:04:35.442Z,24337.00
2023-04-01T11:05:35.757Z,24830.00
2023-04-01T11:06:35.528Z,25629.00
2023-04-01T11:07:35.574Z,22478.00
2023-04-01T11:08:35.554Z,25446.00
2023-04-01T11:09:35.582Z,26108.00
2023-04-01T11:10:35.610Z,28086.00
2023-04-01T11:11:33.421Z,28171.00
2023-04-01T11:12:33.484Z,26938.00
2023-04-01T11:13:33.599Z,23860.00
2023-04-01T11:14:33.560Z,21419.00
2023-04-01T11:15:33.971Z,19074.00
2023-04-01T11:16:36.000Z,23550.00
2023-04-01T11:17:33.864Z,26515.00
2023-04-01T11:18:33.800Z,22561.00
2023-04-01T11:19:37.548Z,15941.00
2023-04-01T11:20:33.874Z,19628.00
2023-04-01T11:21:33.890Z,17816.00
2023-04-01T11:22:33.968Z,15666.00
2023-04-01T11:23:37.112Z,12151.00
2023-04-01T11:24:34.028Z,14936.00
2023-04-01T11:25:35.678Z,15188.00
2023-04-01T11:26:34.178Z,14584.00
2023-04-01T11:27:34.170Z,12960.00
2023-04-01T11:28:34.235Z,17569.00
2023-04-01T11:29:35.038Z,14339.00
2023-04-01T11:30:35.797Z,18591.00
2023-04-01T11:31:34.395Z,14954.00
2023-04-01T11:32:34.410Z,16192.00
2023-04-01T11:33:35.706Z,21008.00
2023-04-01T11:34:34.597Z,20025.00
2023-04-01T11:35:34.803Z,19170.00
2023-04-01T11:36:36.127Z,13850.00
2023-04-01T11:37:34.623Z,17129.00
2023-04-01T11:38:37.577Z,15378.00
2023-04-01T11:39:36.009Z,13416.00
2023-04-01T11:40:36.022Z,16249.00
2023-04-01T11:41:36.188Z,16817.00
2023-04-01T11:42:36.089Z,16855.00
2023-04-01T11:43:36.113Z,19808.00
2023-04-01T11:44:35.601Z,15201.00
2023-04-01T11:45:35.812Z,10696.00
2023-04-01T11:46:35.671Z,14462.00
2023-04-01T11:47:36.078Z,13363.00
2023-04-01T11:48:35.706Z,11435.00
2023-04-01T11:49:35.688Z,12314.00
2023-04-01T11:50:35.705Z,11320.00
2023-04-01T11:51:35.734Z,8248.00
2023-04-01T11:52:35.752Z,11546.00
2023-04-01T11:53:35.782Z,12417.00
2023-04-01T11:54:36.040Z,8685.00
2023-04-01T11:55:36.294Z,4481.00
2023-04-01T11:56:36.067Z,13901.00
2023-04-01T11:57:35.892Z,17422.00
2023-04-01T11:58:35.901Z,17616.00
2023-04-01T11:59:35.920Z,14250.00
2023-04-01T12:00:35.923Z,12587.00
2023-04-01T12:01:36.551Z,14270.00
2023-04-01T12:02:36.029Z,13364.00
2023-04-01T12:03:36.262Z,14123.00
2023-04-01T12:04:35.909Z,12874.00
2023-04-01T12:05:36.206Z,19133.00
2023-04-01T12:06:35.993Z,18771.00
2023-04-01T12:07:36.011Z,17399.00
2023-04-01T12:08:36.054Z,21746.00
2023-04-01T12:09:36.105Z,22334.00
2023-04-01T12:10:36.741Z,16598.00
2023-04-01T12:11:36.260Z,19373.00
2023-04-01T12:12:36.264Z,26165.00
2023-04-01T12:13:36.295Z,24353.00
2023-04-01T12:14:36.343Z,21194.00
2023-04-01T12:15:36.515Z,24914.00
2023-04-01T12:16:36.461Z,21345.00
2023-04-01T12:17:36.546Z,16885.00
2023-04-01T12:18:36.521Z,15622.00
2023-04-01T12:19:36.572Z,12799.00
2023-04-01T12:20:36.650Z,10119.00
2023-04-01T12:21:36.659Z,11747.00
2023-04-01T12:22:36.720Z,10617.00
2023-04-01T12:23:36.750Z,9387.00
2023-04-01T12:24:36.811Z,8102.00
2023-04-01T12:25:36.881Z,5550.00
2023-04-01T12:26:36.909Z,7361.00
2023-04-01T12:27:36.946Z,13773.00
2023-04-01T12:28:37.009Z,13891.00
2023-04-01T12:29:37.125Z,11166.00
2023-04-01T12:30:37.107Z,12406.00
2023-04-01T12:31:37.167Z,10835.00
2023-04-01T12:32:37.222Z,7373.00
2023-04-01T12:33:38.526Z,10025.00
2023-04-01T12:34:37.309Z,9717.00
2023-04-01T12:35:37.495Z,5450.00
2023-04-01T12:36:37.416Z,6428.00
2023-04-01T12:37:38.054Z,14011.00
2023-04-01T12:38:37.485Z,13001.00
2023-04-01T12:39:37.511Z,8751.00
2023-04-01T12:40:37.590Z,4556.00
2023-04-01T12:41:37.601Z,3827.00
2023-04-01T12:42:37.650Z,12087.00
2023-04-01T12:43:37.713Z,16873.00
2023-04-01T12:44:37.749Z,16252.00
2023-04-01T12:45:37.859Z,14334.00
2023-04-01T12:46:37.827Z,11175.00
2023-04-01T12:47:37.948Z,5926.00
2023-04-01T12:48:37.974Z,9381.00
2023-04-01T12:49:37.972Z,14388.00
2023-04-01T12:50:38.046Z,16854.00
2023-04-01T12:51:38.066Z,18245.00
2023-04-01T12:52:38.151Z,13906.00
2023-04-01T12:53:38.165Z,13746.00
2023-04-01T12:54:38.201Z,13212.00
2023-04-01T12:55:38.256Z,13482.00
2023-04-01T12:56:38.295Z,10931.00
2023-04-01T12:57:38.386Z,8077.00
2023-04-01T12:58:38.392Z,7352.00
2023-04-01T12:59:38.441Z,11649.00
2023-04-01T13:00:39.058Z,10878.00
2023-04-01T13:01:38.582Z,10563.00
2023-04-01T13:02:48.361Z,10862.00
2023-04-01T13:03:38.674Z,11755.00
2023-04-01T13:04:38.669Z,15662.00
2023-04-01T13:05:38.719Z,16469.00
2023-04-01T13:06:38.757Z,12979.00
2023-04-01T13:07:38.813Z,9129.00
2023-04-01T13:08:38.928Z,13517.00
2023-04-01T13:09:38.902Z,20511.00
2023-04-01T13:10:38.954Z,22634.00
2023-04-01T13:11:38.999Z,17374.00
2023-04-01T13:12:39.091Z,15062.00
2023-04-01T13:13:39.122Z,18508.00
2023-04-01T13:14:39.165Z,23670.00
2023-04-01T13:15:39.227Z,24494.00
2023-04-01T13:16:39.232Z,23529.00
2023-04-01T13:17:39.319Z,24619.00
2023-04-01T13:18:39.317Z,29050.00
2023-04-01T13:19:39.399Z,32410.00
2023-04-01T13:20:39.439Z,32109.00
2023-04-01T13:21:39.471Z,34425.00
2023-04-01T13:22:39.500Z,31712.00
2023-04-01T13:23:39.590Z,28771.00
2023-04-01T13:24:39.594Z,28427.00
2023-04-01T13:25:39.693Z,25331.00
2023-04-01T13:26:40.611Z,26563.00
2023-04-01T13:27:39.748Z,21597.00
2023-04-01T13:28:48.046Z,20092.00
2023-04-01T13:29:54.293Z,18904.00
2023-04-01T13:30:39.876Z,16349.00
2023-04-01T13:31:40.018Z,13783.00
2023-04-01T13:32:43.648Z,14170.00
2023-04-01T13:33:40.023Z,20570.00
2023-04-01T13:34:40.085Z,17833.00
2023-04-01T13:35:40.267Z,15097.00
2023-04-01T13:36:40.168Z,12603.00
2023-04-01T13:37:40.255Z,10958.00
2023-04-01T13:38:40.305Z,10397.00
2023-04-01T13:39:40.332Z,13576.00
2023-04-01T13:40:46.779Z,14506.00
2023-04-01T13:41:40.425Z,11506.00
2023-04-01T13:42:40.593Z,9018.00
2023-04-01T13:43:40.495Z,7810.00
2023-04-01T13:44:40.593Z,7027.00
2023-04-01T13:45:40.613Z,5753.00
2023-04-01T13:46:40.700Z,5611.00
2023-04-01T13:47:44.002Z,5275.00
2023-04-01T13:48:40.754Z,5263.00
2023-04-01T13:49:42.268Z,5056.00
2023-04-01T13:50:40.844Z,5212.00
2023-04-01T13:51:40.917Z,4766.00
2023-04-01T13:52:41.616Z,6000.00
2023-04-01T13:53:43.668Z,6625.00
2023-04-01T13:54:41.023Z,6025.00
2023-04-01T13:55:47.651Z,8609.00
2023-04-01T13:56:41.252Z,12114.00
2023-04-01T13:57:52.204Z,15151.00
2023-04-01T13:58:59.637Z,17194.00
2023-04-01T13:59:41.269Z,19998.00
2023-04-01T14:00:43.058Z,22290.00
2023-04-01T14:01:47.531Z,23959.00
2023-04-01T14:03:18.224Z,24647.00
2023-04-01T14:03:41.451Z,24575.00
2023-04-01T14:04:43.269Z,24055.00
2023-04-01T14:05:43.933Z,23990.00
2023-04-01T14:06:41.580Z,24055.00
2023-04-01T14:07:42.136Z,23681.00
2023-04-01T14:08:42.779Z,23061.00
2023-04-01T14:09:41.755Z,21807.00
2023-04-01T14:10:42.638Z,20561.00
2023-04-01T14:11:42.664Z,19263.00
2023-04-01T14:12:41.860Z,18472.00
2023-04-01T14:13:41.891Z,17636.00
2023-04-01T14:14:42.197Z,17351.00
2023-04-01T14:15:41.976Z,16847.00
2023-04-01T14:16:42.139Z,16323.00
2023-04-01T14:17:42.213Z,15908.00
2023-04-01T14:18:43.144Z,15917.00
2023-04-01T14:19:42.277Z,16061.00
2023-04-01T14:20:45.140Z,15564.00
2023-04-01T14:21:43.112Z,15587.00
2023-04-01T14:22:43.123Z,15853.00
2023-04-01T14:23:42.377Z,16467.00
2023-04-01T14:24:42.459Z,16114.00
2023-04-01T14:25:42.452Z,15617.00
2023-04-01T14:26:42.516Z,15700.00
2023-04-01T14:27:42.546Z,16265.00
2023-04-01T14:28:42.607Z,16715.00
2023-04-01T14:29:43.634Z,17075.00
2023-04-01T14:30:42.718Z,16614.00
2023-04-01T14:31:45.664Z,16267.00
2023-04-01T14:32:42.799Z,15902.00
2023-04-01T14:33:42.860Z,15673.00
2023-04-01T14:34:42.867Z,15497.00
2023-04-01T14:35:43.666Z,16655.00
2023-04-01T14:36:42.954Z,16853.00
2023-04-01T14:37:44.535Z,16170.00
2023-04-01T14:38:43.079Z,14645.00
2023-04-01T14:39:43.131Z,13583.00
2023-04-01T14:40:43.160Z,14624.00
2023-04-01T14:41:44.618Z,12934.00
2023-04-01T14:42:43.281Z,12135.00
2023-04-01T14:43:46.143Z,12595.00
2023-04-01T14:44:44.670Z,12689.00
2023-04-01T14:45:43.418Z,11442.00
2023-04-01T14:46:43.657Z,10333.00
2023-04-01T14:47:44.187Z,12469.00
2023-04-01T14:48:44.623Z,14880.00
2023-04-01T14:49:43.681Z,15856.00
2023-04-01T14:50:43.638Z,17011.00
2023-04-01T14:51:44.632Z,17081.00
2023-04-01T14:52:43.721Z,16748.00
2023-04-01T14:53:43.776Z,16534.00
2023-04-01T14:54:43.822Z,19832.00
2023-04-01T14:55:44.982Z,17713.00
2023-04-01T14:56:44.958Z,16219.00
2023-04-01T14:57:44.998Z,16448.00
2023-04-01T14:58:45.015Z,19038.00
2023-04-01T14:59:44.051Z,19815.00
2023-04-01T15:00:44.083Z,20709.00
2023-04-01T15:01:45.897Z,20570.00
2023-04-01T15:02:45.148Z,19965.00
2023-04-01T15:03:45.113Z,18587.00
2023-04-01T15:04:45.217Z,17429.00
2023-04-01T15:05:44.320Z,16025.00
2023-04-01T15:06:44.371Z,15058.00
2023-04-01T15:07:44.456Z,13978.00
2023-04-01T15:08:44.496Z,12928.00
2023-04-01T15:09:44.515Z,10858.00
2023-04-01T15:10:44.567Z,8703.00
2023-04-01T15:11:45.268Z,8450.00
2023-04-01T15:12:45.345Z,7785.00
2023-04-01T15:13:45.300Z,7382.00
2023-04-01T15:14:45.328Z,6991.00
2023-04-01T15:15:45.347Z,7047.00
2023-04-01T15:16:44.849Z,6537.00
2023-04-01T15:17:44.973Z,6845.00
2023-04-01T15:18:45.421Z,7172.00
2023-04-01T15:19:45.459Z,6805.00
2023-04-01T15:20:45.060Z,7768.00
2023-04-01T15:21:45.494Z,7678.00
2023-04-01T15:22:45.196Z,9138.00
2023-04-01T15:23:45.181Z,11085.00
2023-04-01T15:24:45.565Z,12324.00
2023-04-01T15:25:45.580Z,12190.00
2023-04-01T15:26:45.327Z,12980.00
2023-04-01T15:27:45.369Z,15166.00
2023-04-01T15:28:45.649Z,15984.00
2023-04-01T15:29:45.690Z,15579.00
2023-04-01T15:30:45.753Z,15193.00
2023-04-01T15:31:45.569Z,13955.00
2023-04-01T15:32:45.696Z,12584.00
2023-04-01T15:33:45.689Z,9570.00
2023-04-01T15:34:45.804Z,9335.00
2023-04-01T15:35:46.694Z,11982.00
2023-04-01T15:36:45.863Z,14500.00
2023-04-01T15:37:45.896Z,15290.00
2023-04-01T15:38:45.920Z,15342.00
2023-04-01T15:39:45.943Z,15266.00
2023-04-01T15:40:46.009Z,14644.00
2023-04-01T15:41:46.033Z,14016.00
2023-04-01T15:42:46.075Z,12225.00
2023-04-01T15:43:46.136Z,8632.00
2023-04-01T15:44:46.195Z,6097.00
2023-04-01T15:45:46.218Z,4444.00
2023-04-01T15:46:46.393Z,4183.00
2023-04-01T15:47:53.197Z,4364.00
2023-04-01T15:48:46.374Z,3419.00
2023-04-01T15:49:46.406Z,2519.00
2023-04-01T15:50:46.627Z,2408.00
2023-04-01T15:51:46.502Z,1751.00
2023-04-01T15:52:46.545Z,1830.00
2023-04-01T15:53:46.586Z,4226.00
2023-04-01T15:54:53.645Z,5165.00
2023-04-01T15:55:46.682Z,5869.00
2023-04-01T15:56:46.759Z,6713.00
2023-04-01T15:57:53.645Z,6925.00
2023-04-01T15:58:46.819Z,6675.00
2023-04-01T15:59:46.871Z,5397.00
2023-04-01T16:00:46.940Z,4874.00
2023-04-01T16:01:46.977Z,5281.00
2023-04-01T16:02:47.093Z,5580.00
2023-04-01T16:03:47.224Z,5864.00
2023-04-01T16:04:47.121Z,5685.00
2023-04-01T16:05:47.134Z,5460.00
2023-04-01T16:06:47.187Z,5583.00
2023-04-01T16:07:47.259Z,5870.00
2023-04-01T16:08:47.282Z,6020.00
2023-04-01T16:09:47.318Z,6165.00
2023-04-01T16:10:54.143Z,6292.00
2023-04-01T16:11:47.411Z,6641.00
2023-04-01T16:12:50.549Z,6886.00
2023-04-01T16:13:50.537Z,7095.00
2023-04-01T16:14:47.560Z,7097.00
2023-04-01T16:15:50.209Z,7188.00
2023-04-01T16:16:50.275Z,7198.00
2023-04-01T16:17:50.313Z,7410.00
2023-04-01T16:18:50.296Z,7418.00
2023-04-01T16:19:50.291Z,7552.00
2023-04-01T16:20:50.323Z,7377.00
2023-04-01T16:21:50.347Z,7316.00
2023-04-01T16:22:50.369Z,7086.00
2023-04-01T16:23:50.385Z,6495.00
2023-04-01T16:24:50.474Z,6357.00
2023-04-01T16:25:50.429Z,6254.00
2023-04-01T16:26:50.508Z,6020.00
2023-04-01T16:27:50.479Z,5812.00
2023-04-01T16:28:50.502Z,5740.00
2023-04-01T16:29:51.138Z,5698.00
2023-04-01T16:30:50.545Z,5844.00
2023-04-01T16:31:48.337Z,5815.00
2023-04-01T16:32:50.651Z,5702.00
2023-04-01T16:33:50.613Z,5547.00
2023-04-01T16:34:48.461Z,5774.00
2023-04-01T16:35:48.614Z,6057.00
2023-04-01T16:36:48.554Z,6460.00
2023-04-01T16:37:48.614Z,6625.00
2023-04-01T16:38:48.651Z,6654.00
2023-04-01T16:39:48.705Z,6562.00
2023-04-01T16:40:48.769Z,6277.00
2023-04-01T16:41:48.793Z,5884.00
2023-04-01T16:42:48.844Z,5421.00
2023-04-01T16:43:48.898Z,4949.00
2023-04-01T16:44:50.792Z,4529.00
2023-04-01T16:45:49.019Z,4132.00
2023-04-01T16:46:49.010Z,3793.00
2023-04-01T16:47:49.126Z,3526.00
2023-04-01T16:48:49.106Z,3458.00
2023-04-01T16:49:49.161Z,3344.00
2023-04-01T16:50:49.217Z,3323.00
2023-04-01T16:51:49.250Z,3334.00
2023-04-01T16:52:51.022Z,3430.00
2023-04-01T16:53:49.342Z,3296.00
2023-04-01T16:54:49.375Z,3063.00
2023-04-01T16:55:49.432Z,2961.00
2023-04-01T16:56:49.483Z,3157.00
2023-04-01T16:57:49.548Z,3514.00
2023-04-01T16:58:49.557Z,3907.00
2023-04-01T16:59:49.616Z,3927.00
2023-04-01T17:00:49.661Z,3814.00
2023-04-01T17:01:50.888Z,3742.00
2023-04-01T17:02:50.868Z,3594.00
2023-04-01T17:03:50.883Z,3532.00
2023-04-01T17:04:50.597Z,3468.00
2023-04-01T17:05:50.652Z,3439.00
2023-04-01T17:06:50.656Z,3522.00
2023-04-01T17:07:50.649Z,3500.00
2023-04-01T17:08:50.698Z,3436.00
2023-04-01T17:09:50.702Z,3381.00
2023-04-01T17:10:50.736Z,3218.00
2023-04-01T17:11:50.778Z,3022.00
2023-04-01T17:12:50.794Z,2963.00
2023-04-01T17:13:50.814Z,2932.00
2023-04-01T17:14:50.834Z,2944.00
2023-04-01T17:15:50.422Z,2911.00
2023-04-01T17:16:50.903Z,2861.00
2023-04-01T17:17:50.970Z,2771.00
2023-04-01T17:18:50.966Z,2716.00
2023-04-01T17:19:50.987Z,2645.00
2023-04-01T17:20:50.585Z,2554.00
2023-04-01T17:21:50.625Z,2518.00
2023-04-01T17:22:51.059Z,2427.00
2023-04-01T17:23:50.736Z,2339.00
2023-04-01T17:24:51.014Z,2254.00
2023-04-01T17:25:50.800Z,2157.00
2023-04-01T17:26:50.890Z,2073.00
2023-04-01T17:27:51.151Z,1985.00
2023-04-01T17:28:50.976Z,1893.00
2023-04-01T17:29:51.142Z,1805.00
2023-04-01T17:30:51.203Z,1712.00
2023-04-01T17:31:51.205Z,1626.00
2023-04-01T17:32:51.176Z,1543.00
2023-04-01T17:33:51.205Z,1459.00
2023-04-01T17:34:51.311Z,1357.00
2023-04-01T17:35:51.370Z,1286.00
2023-04-01T17:36:51.304Z,1209.00
2023-04-01T17:37:51.367Z,1138.00
2023-04-01T17:38:51.396Z,1076.00
2023-04-01T17:39:51.452Z,1013.00
2023-04-01T17:40:53.157Z,953.00
2023-04-01T17:41:51.544Z,894.00
2023-04-01T17:42:51.580Z,843.00
2023-04-01T17:43:58.169Z,775.00
2023-04-01T17:44:51.685Z,704.00
2023-04-01T17:45:51.759Z,653.00
2023-04-01T17:46:51.862Z,612.00
2023-04-01T17:47:51.883Z,561.00
2023-04-01T17:48:51.852Z,510.00
2023-04-01T17:49:51.906Z,456.00
2023-04-01T17:50:51.981Z,392.00
2023-04-01T17:51:52.027Z,377.00
2023-04-01T17:52:52.038Z,331.00
2023-04-01T17:53:52.091Z,308.00
2023-04-01T17:54:52.123Z,288.00
2023-04-01T17:55:59.163Z,248.00
2023-04-01T17:56:52.268Z,229.00
2023-04-01T17:57:52.303Z,214.00
2023-04-01T17:58:59.158Z,186.00
2023-04-01T17:59:52.361Z,158.00
2023-04-01T18:00:55.881Z,141.00
2023-04-01T18:01:52.478Z,114.00
2023-04-01T18:02:52.619Z,100.00
2023-04-01T18:03:52.635Z,100.00
2023-04-01T18:04:55.546Z,72.00
2023-04-01T18:05:55.561Z,59.00
2023-04-01T18:06:52.688Z,34.00
2023-04-01T18:07:52.729Z,32.00
2023-04-01T18:08:56.215Z,41.00
2023-04-01T18:09:52.824Z,31.00
2023-04-01T18:10:52.862Z,33.00
2023-04-01T18:11:52.901Z,20.00
2023-04-01T18:12:55.680Z,13.00
2023-04-01T18:13:53.020Z,9.00
2023-04-01T18:14:55.736Z,9.00
2023-04-01T18:15:53.104Z,4.00
2023-04-01T18:16:53.134Z,4.00
2023-04-01T18:17:53.214Z,4.00
2023-04-01T18:18:55.594Z,4.00
2023-04-01T18:19:53.262Z,0.00
2023-04-01T18:20:53.318Z,0.00
2023-04-01T18:21:53.367Z,3.00
2023-04-01T18:22:53.405Z,3.00
2023-04-01T18:24:01.603Z,0.00
2023-04-01T18:24:53.494Z,0.00
2023-04-01T18:25:53.545Z,0.00
2023-04-01T18:26:56.055Z,0.00
2023-04-01T18:27:53.620Z,0.00
2023-04-01T18:28:53.703Z,0.00
2023-04-01T18:29:53.728Z,0.00
2023-04-01T18:30:56.113Z,0.00
2023-04-01T18:31:53.875Z,0.00
2023-04-01T18:32:53.900Z,0.00
2023-04-01T18:33:56.183Z,0.00
2023-04-01T18:34:53.978Z,0.00
2023-04-01T18:35:54.112Z,0.00
2023-04-01T18:36:54.029Z,0.00
2023-04-01T18:37:54.079Z,0.00
2023-04-01T18:38:54.130Z,0.00
2023-04-01T18:39:54.197Z,0.00
2023-04-01T18:40:55.474Z,0.00
2023-04-01T18:41:54.293Z,0.00
2023-04-01T18:42:54.298Z,0.00
2023-04-01T18:43:54.349Z,0.00
2023-04-01T18:44:54.388Z,0.00
2023-04-01T18:45:54.517Z,0.00
2023-04-01T18:46:54.548Z,0.00
2023-04-01T18:47:54.576Z,0.00
2023-04-01T18:48:54.572Z,0.00
2023-04-01T18:49:54.621Z,0.00
2023-04-01T18:50:54.653Z,0.00
2023-04-01T18:51:54.759Z,0.00
2023-04-01T18:52:55.750Z,0.00
2023-04-01T18:53:54.806Z,0.00
2023-04-01T18:54:54.835Z,0.00
2023-04-01T18:55:55.696Z,0.00
2023-04-01T18:56:54.983Z,0.00
2023-04-01T18:57:55.010Z,0.00
2023-04-01T18:58:55.028Z,0.00
2023-04-01T18:59:55.074Z,0.00
2023-04-01T19:00:55.143Z,0.00
2023-04-01T19:01:55.203Z,0.00
2023-04-01T19:02:55.345Z,0.00
2023-04-01T19:03:55.332Z,0.00
2023-04-01T19:04:55.297Z,0.00
2023-04-01T19:05:55.348Z,0.00
2023-04-01T19:06:55.420Z,0.00